Pagrindinis puslapis
METAR-TAF:

METAR-TAF

Oro uostai :

Cayo Coco, Kuba

platuma: 22-27-40N, ilguma: 078-19-42W, Aukštis: 4 m

Dabartinis oras

Ataskaita buvo paskelbta 32 minutes, ne 13:51 UTC
Vėjas 9 kt iš Rytų/Šiaurės Rytų, svyruoja nuo Šiaurės Rytų ir Rytų
Temperatūra 26°C
Drėgmė 51%
Slėgis 1019 hPa
Matomumas: 9000 m
Išsisklaidę debesys ne aukštis 2000 ft

METAR: MUCC 211351Z 07009KT 040V100 9000 SCT020 26/15 Q1019

Laikas: 09:23 (14:23 UTC)

Prognozė

Ataskaita buvo paskelbta 3 valandos ir 23 minutes, ne 11:00 UTC
Prognozė galioja nuo 21 metu 12 UTC su 22 metu 12 UTC
Vėjas 3 kt nuo kintamojo kryptimis
Matomumas: 9000 m
Išsisklaidę debesys ne aukštis 2000 ft
Tapsmas
nuo 21 metu 15 UTC su 21 metu 17 UTC
Vėjas 10 kt iš Rytų/Šiaurės Rytų
Tapsmas
nuo 22 metu 01 UTC su 22 metu 03 UTC
Vėjas 3 kt nuo kintamojo kryptimis

TAF: MUCC 211100Z 2112/2212 VRB03KT 9000 SCT020 BECMG 2115/2117 06010KT BECMG 2201/2203 VRB03KT

Orai ataskaitas ir orų prognozės (METAR, TAF).

turimą stotys yra geltonos ir raudonos taškus žemėlapyje.

Perkelti pele per norėdami pamatyti stoties vardą.

Tada spustelėkite, norėdami matyti oro stebėjimo ir prognozės.

Norėdami pakeisti žemėlapį: spustelėkite ant žalios mygtukų su juodo kryžiaus žemyn,; žalią mygtuką su brūkšneliu, jei norite nutolinti; arba žalių rodyklių gretimoms žemėlapius.


METAR-TAF: